Time;durP1;ratioP1;P1;durP2;ratioP2;P2;SDS_P1;SDS_P2;PMS_P1;PMS_P2;Temp;Humidity;BMP_temperature;BMP_pressure;BME280_temperature;BME280_humidity;BME280_pressure;Samples;Min_cycle;Max_cycle;Signal;HPM_P1;HPM_P2
2023/10/17 00:01:59;;;;;;;13.80;5.80;;;;;;;6.08;64.88;96403.97;4931605;29;20954;-73
2023/10/17 00:04:32;;;;;;;8.33;6.20;;;;;;;5.98;65.64;96401.66;4931665;29;20462;-73
2023/10/17 00:06:58;;;;;;;7.90;5.87;;;;;;;6.42;63.66;96405.66;4931569;29;20510;-73
2023/10/17 00:09:25;;;;;;;6.73;6.00;;;;;;;6.47;63.42;96401.22;4931220;29;20911;-73
2023/10/17 00:14:25;;;;;;;6.90;5.80;;;;;;;6.22;64.54;96405.38;4931103;29;20395;-73
2023/10/17 00:16:57;;;;;;;7.90;5.43;;;;;;;5.91;65.81;96399.19;4930929;29;20490;-72
2023/10/17 00:19:25;;;;;;;14.20;6.00;;;;;;;6.26;64.53;96391.34;4930976;29;20403;-72
2023/10/17 00:21:51;;;;;;;5.70;5.20;;;;;;;5.99;65.91;96385.97;4931094;29;21095;-73
2023/10/17 00:24:19;;;;;;;6.70;5.93;;;;;;;6.08;65.25;96395.31;4930712;29;20926;-73
2023/10/17 00:26:47;;;;;;;10.63;6.20;;;;;;;6.33;64.52;96392.88;4930558;29;20846;-74
2023/10/17 00:29:13;;;;;;;6.30;5.70;;;;;;;6.21;64.49;96394.06;4930343;29;20414;-73
2023/10/17 00:31:39;;;;;;;9.03;6.30;;;;;;;6.20;65.07;96388.94;4929405;29;20430;-74
2023/10/17 00:34:16;;;;;;;9.83;5.67;;;;;;;6.21;65.17;96381.03;4913466;29;21242;-74
2023/10/17 00:36:48;;;;;;;7.60;5.80;;;;;;;6.36;64.65;96382.41;4930392;29;20186;-73
2023/10/17 00:39:30;;;;;;;6.73;5.93;;;;;;;6.22;65.09;96372.34;4930349;29;20437;-73
2023/10/17 00:44:36;;;;;;;8.77;6.37;;;;;;;6.19;65.10;96367.22;4930461;29;20429;-73
2023/10/17 00:47:03;;;;;;;6.00;5.30;;;;;;;6.26;64.71;96367.91;4930446;29;20419;-73
2023/10/17 00:49:33;;;;;;;7.83;6.50;;;;;;;6.30;64.53;96361.72;4929902;29;20987;-73
2023/10/17 00:52:03;;;;;;;6.97;6.00;;;;;;;6.30;64.72;96365.16;4930141;29;20434;-72
2023/10/17 00:54:32;;;;;;;6.70;5.93;;;;;;;6.34;64.46;96360.72;4930430;29;21029;-74
2023/10/17 00:57:00;;;;;;;7.57;6.10;;;;;;;6.32;64.26;96359.91;4936469;29;20476;-74
2023/10/17 00:59:29;;;;;;;7.03;6.00;;;;;;;6.30;64.36;96356.50;4931475;28;20982;-74
2023/10/17 01:01:56;;;;;;;6.70;6.03;;;;;;;6.36;64.39;96348.53;4949091;29;20462;-74
2023/10/17 01:04:23;;;;;;;10.03;5.77;;;;;;;6.30;64.24;96340.84;4949368;29;20438;-73
2023/10/17 01:06:55;;;;;;;8.67;6.50;;;;;;;6.13;65.02;96342.19;4949210;29;21111;-74
2023/10/17 01:09:24;;;;;;;7.70;6.33;;;;;;;6.43;64.36;96338.78;4948729;28;20414;-74
2023/10/17 01:11:49;;;;;;;6.70;5.97;;;;;;;6.25;64.72;96348.81;4949063;29;20809;-73
2023/10/17 01:14:18;;;;;;;8.23;6.33;;;;;;;6.24;64.51;96348.88;4949440;29;20410;-72
2023/10/17 01:16:51;;;;;;;8.90;6.57;;;;;;;6.12;64.79;96335.28;4949103;29;20174;-72
2023/10/17 01:19:19;;;;;;;7.67;6.30;;;;;;;6.19;64.87;96338.56;4948598;29;20406;-72
2023/10/17 01:21:45;;;;;;;11.20;6.73;;;;;;;6.23;64.93;96334.13;4949084;29;20524;-72
2023/10/17 01:24:11;;;;;;;6.13;5.33;;;;;;;6.27;64.29;96325.31;4931694;29;20449;-73
2023/10/17 01:26:44;;;;;;;7.00;6.30;;;;;;;6.29;64.59;96326.13;4948890;29;20516;-72
2023/10/17 01:29:12;;;;;;;10.43;7.07;;;;;;;6.38;64.13;96331.09;4948645;29;20911;-73
2023/10/17 01:31:42;;;;;;;7.33;6.30;;;;;;;6.33;64.35;96317.31;4949118;28;20967;-73
2023/10/17 01:34:08;;;;;;;8.30;6.57;;;;;;;6.37;64.14;96316.34;4931339;29;20501;-73
2023/10/17 01:36:35;;;;;;;7.30;6.07;;;;;;;6.22;64.60;96319.38;4948665;29;20928;-73
2023/10/17 01:39:05;;;;;;;7.47;6.77;;;;;;;6.05;65.43;96312.88;4948160;29;20418;-73
2023/10/17 01:41:31;;;;;;;8.03;6.23;;;;;;;5.80;65.98;96306.59;4948128;28;20550;-72
2023/10/17 01:43:56;;;;;;;6.97;5.70;;;;;;;6.00;65.52;96306.06;4930841;29;20466;-72
2023/10/17 01:46:22;;;;;;;7.30;6.60;;;;;;;5.99;65.65;96312.19;4948664;29;20178;-72
2023/10/17 01:48:49;;;;;;;7.77;6.53;;;;;;;5.78;66.27;96306.63;4930868;29;20174;-73
2023/10/17 01:51:19;;;;;;;7.37;6.33;;;;;;;5.97;65.36;96309.63;4948771;28;20253;-73
2023/10/17 01:53:49;;;;;;;8.43;6.43;;;;;;;5.83;66.17;96312.56;4948903;29;20512;-73
2023/10/17 01:56:14;;;;;;;10.13;6.40;;;;;;;6.03;65.72;96311.22;4947740;29;21096;-72
2023/10/17 01:58:50;;;;;;;7.17;6.00;;;;;;;6.03;65.66;96312.06;4929424;29;20419;-73
2023/10/17 02:01:17;;;;;;;9.30;6.93;;;;;;;6.02;65.35;96318.16;4929541;29;20205;-73
2023/10/17 02:03:45;;;;;;;14.30;6.30;;;;;;;5.97;65.60;96322.66;4931393;29;20774;-72
2023/10/17 02:06:14;;;;;;;6.77;6.17;;;;;;;6.00;65.57;96325.19;4937576;29;20526;-72
2023/10/17 02:08:43;;;;;;;9.77;7.03;;;;;;;6.06;64.51;96326.75;4938667;29;20455;-72
2023/10/17 02:11:26;;;;;;;7.00;6.30;;;;;;;6.22;64.87;96329.81;4939730;29;20442;-72
2023/10/17 02:13:56;;;;;;;7.70;5.80;;;;;;;5.96;65.85;96320.94;4930173;29;20418;-73
2023/10/17 02:16:28;;;;;;;6.83;6.20;;;;;;;5.84;66.32;96326.47;4927986;29;20418;-73
2023/10/17 02:18:58;;;;;;;11.43;6.70;;;;;;;5.80;66.20;96330.03;4932951;29;20427;-75
2023/10/17 02:21:25;;;;;;;7.07;6.13;;;;;;;5.84;66.55;96329.06;4945367;28;20465;-74
2023/10/17 02:23:51;;;;;;;11.00;7.50;;;;;;;5.72;66.91;96333.69;4929175;29;20433;-74
2023/10/17 02:26:21;;;;;;;9.87;6.33;;;;;;;5.72;66.68;96336.28;4935308;29;20409;-73
2023/10/17 02:28:49;;;;;;;7.60;6.13;;;;;;;5.79;66.80;96333.50;4947761;29;20178;-74
2023/10/17 02:31:15;;;;;;;12.13;6.90;;;;;;;5.83;66.30;96341.22;4947726;28;20436;-74
2023/10/17 02:33:44;;;;;;;6.80;6.10;;;;;;;5.76;66.70;96334.44;4948397;29;20457;-73
2023/10/17 02:36:16;;;;;;;7.00;6.30;;;;;;;5.93;65.80;96323.63;4931038;29;20450;-73
2023/10/17 02:38:43;;;;;;;10.63;6.10;;;;;;;5.81;66.39;96332.59;4928777;29;20415;-73
2023/10/17 02:41:12;;;;;;;10.00;5.83;;;;;;;5.67;66.81;96325.16;4911479;29;20985;-73
2023/10/17 02:43:40;;;;;;;9.00;6.00;;;;;;;5.78;66.49;96326.59;4928922;29;20415;-73
2023/10/17 02:46:06;;;;;;;14.30;6.30;;;;;;;6.03;66.12;96332.91;4928730;29;20960;-73
2023/10/17 02:48:38;;;;;;;7.53;6.70;;;;;;;5.90;65.97;96332.34;4928812;29;20836;-74
2023/10/17 02:53:52;;;;;;;9.00;7.47;;;;;;;5.55;67.50;96330.69;4909566;29;20435;-74
2023/10/17 02:56:20;;;;;;;7.37;5.70;;;;;;;5.46;67.32;96316.13;4912543;29;20478;-73
2023/10/17 02:58:50;;;;;;;8.33;5.80;;;;;;;5.33;67.44;96314.72;4913468;29;20470;-73
2023/10/17 03:01:17;;;;;;;7.83;7.10;;;;;;;5.56;67.13;96315.91;4914263;29;20471;-73
2023/10/17 03:03:43;;;;;;;7.70;6.13;;;;;;;5.64;66.59;96320.00;4914519;29;20545;-73
2023/10/17 03:06:08;;;;;;;6.23;5.57;;;;;;;5.32;67.73;96323.44;4913931;29;20435;-73
2023/10/17 03:08:37;;;;;;;6.70;5.87;;;;;;;5.50;66.86;96319.50;4913999;29;20625;-73
2023/10/17 03:11:08;;;;;;;7.00;6.30;;;;;;;5.55;66.80;96315.06;4913277;29;20192;-73
2023/10/17 03:13:43;;;;;;;11.00;6.17;;;;;;;5.50;67.18;96329.91;4914268;29;20491;-73
2023/10/17 03:16:26;;;;;;;10.73;6.10;;;;;;;5.57;66.42;96328.88;4913024;29;20422;-74
2023/10/17 03:18:57;;;;;;;10.13;5.57;;;;;;;5.43;67.09;96330.97;4912776;29;20451;-73
2023/10/17 03:21:29;;;;;;;7.60;5.73;;;;;;;5.61;66.45;96332.25;4912757;29;20863;-74
2023/10/17 03:24:00;;;;;;;6.50;5.43;;;;;;;5.71;66.00;96326.75;4913037;29;20408;-74
2023/10/17 03:26:25;;;;;;;10.03;6.07;;;;;;;5.71;65.98;96336.31;4932237;29;20440;-74
2023/10/17 03:28:51;;;;;;;8.83;6.43;;;;;;;5.63;66.17;96333.06;4951030;29;20521;-74
2023/10/17 03:31:22;;;;;;;9.20;5.90;;;;;;;5.59;66.34;96345.31;4950713;28;20297;-74
2023/10/17 03:33:51;;;;;;;7.30;5.60;;;;;;;5.71;65.73;96342.38;4950717;29;20178;-74
2023/10/17 03:36:41;;;;;;;7.10;6.37;;;;;;;5.62;65.94;96337.44;4950752;29;20432;-74
2023/10/17 03:39:20;;;;;;;6.70;5.73;;;;;;;5.54;66.64;96341.97;4950470;29;20525;-71
2023/10/17 03:41:45;;;;;;;8.03;6.00;;;;;;;5.72;65.88;96336.28;4950597;29;20453;-74
2023/10/17 03:44:15;;;;;;;7.30;5.73;;;;;;;5.34;66.62;96328.56;4950724;29;20421;-72
2023/10/17 03:46:48;;;;;;;8.23;5.87;;;;;;;5.31;66.94;96329.50;4950373;29;20525;-73
2023/10/17 03:49:19;;;;;;;24.63;6.60;;;;;;;5.28;66.64;96327.84;4950102;29;20414;-72
2023/10/17 03:51:50;;;;;;;7.30;5.90;;;;;;;5.23;66.61;96327.09;4950280;28;20434;-72
2023/10/17 03:54:18;;;;;;;6.83;5.90;;;;;;;5.42;66.44;96321.44;4950221;29;20422;-72
2023/10/17 03:56:49;;;;;;;6.80;5.37;;;;;;;5.30;66.41;96320.84;4950222;29;20881;-72
2023/10/17 04:01:48;;;;;;;7.60;5.60;;;;;;;5.21;66.94;96325.44;4949880;28;21156;-72
2023/10/17 04:04:18;;;;;;;5.50;5.00;;;;;;;5.29;67.16;96321.75;4950069;29;20192;-73
2023/10/17 04:06:48;;;;;;;9.00;5.40;;;;;;;5.19;66.51;96322.84;4949869;28;20430;-72
2023/10/17 04:09:27;;;;;;;5.20;4.70;;;;;;;5.20;66.85;96319.38;4949796;29;20433;-72
2023/10/17 04:11:58;;;;;;;6.57;5.50;;;;;;;5.20;67.24;96331.53;4950178;29;20472;-73
2023/10/17 04:14:29;;;;;;;9.20;6.17;;;;;;;5.24;66.47;96321.03;4950079;29;20406;-72
2023/10/17 04:16:55;;;;;;;7.90;5.47;;;;;;;5.39;65.95;96318.94;4950338;29;20406;-74
2023/10/17 04:19:22;;;;;;;7.23;5.80;;;;;;;5.50;66.33;96327.31;4949552;28;20892;-74
2023/10/17 04:24:54;;;;;;;6.00;4.97;;;;;;;5.46;66.14;96320.50;4949930;29;21295;-73
2023/10/17 04:29:42;;;;;;;5.90;5.17;;;;;;;5.13;67.84;96316.97;4927863;29;20410;-74
2023/10/17 04:32:13;;;;;;;6.23;5.63;;;;;;;5.30;67.27;96313.06;4931104;29;20227;-73
2023/10/17 04:34:45;;;;;;;6.93;5.13;;;;;;;5.02;67.78;96312.84;4930637;29;20415;-73
2023/10/17 04:37:15;;;;;;;7.90;5.67;;;;;;;5.21;67.67;96309.81;4910363;29;20462;-73
2023/10/17 04:39:54;;;;;;;8.87;5.10;;;;;;;5.48;66.44;96308.28;4910945;29;20453;-73
2023/10/17 04:45:13;;;;;;;9.80;5.30;;;;;;;5.66;65.72;96301.75;4928045;29;20465;-73
2023/10/17 04:47:39;;;;;;;14.40;5.70;;;;;;;5.77;65.65;96302.31;4927444;29;20490;-73
2023/10/17 04:50:11;;;;;;;10.77;6.10;;;;;;;5.68;65.47;96299.97;4927900;29;20438;-73
2023/10/17 04:52:44;;;;;;;12.43;5.90;;;;;;;5.78;64.85;96304.03;4928947;29;20171;-73
2023/10/17 05:00:37;;;;;;;10.97;6.23;;;;;;;5.76;65.42;96312.78;4929469;29;20456;-73
2023/10/17 05:03:32;;;;;;;12.40;8.33;;;;;;;5.56;66.05;96308.09;4930505;29;20443;-74
2023/10/17 05:06:18;;;;;;;11.57;6.03;;;;;;;5.55;65.79;96296.84;4942644;29;20431;-72
2023/10/17 06:17:40;;;;;;;9.23;5.70;;;;;;;4.35;70.82;96329.94;4926104;29;20906;-71
2023/10/17 06:20:11;;;;;;;10.17;6.57;;;;;;;3.98;72.82;96325.47;4935660;28;20452;-71
2023/10/17 06:28:27;;;;;;;7.40;5.27;;;;;;;4.63;70.23;96333.69;4929251;29;20440;-73
2023/10/17 06:33:37;;;;;;;7.47;5.10;;;;;;;4.54;71.08;96338.22;4929559;29;20413;-72
2023/10/17 06:36:25;;;;;;;8.73;5.17;;;;;;;4.42;70.97;96345.38;4932089;29;20443;-71
2023/10/17 06:38:51;;;;;;;10.07;5.80;;;;;;;4.54;71.42;96343.41;4931580;29;20174;-72
2023/10/17 06:41:27;;;;;;;5.33;4.70;;;;;;;4.54;71.08;96346.00;4931451;29;20477;-72
2023/10/17 06:43:56;;;;;;;5.23;4.73;;;;;;;4.55;71.17;96342.50;4932152;29;20426;-71
2023/10/17 06:46:29;;;;;;;6.47;5.87;;;;;;;4.90;69.86;96346.09;4932820;29;20443;-71
2023/10/17 06:48:57;;;;;;;21.10;7.27;;;;;;;6.92;86.89;96330.38;4931758;29;20980;-70
2023/10/17 06:51:36;;;;;;;66.03;10.00;;;;;;;6.53;66.68;96327.19;4931968;29;20441;-70
2023/10/17 06:54:12;;;;;;;8.73;5.70;;;;;;;5.55;67.21;96335.00;4914871;29;20437;-71
2023/10/17 06:56:41;;;;;;;7.30;5.20;;;;;;;5.28;68.29;96324.38;4935302;29;20442;-71
2023/10/17 06:59:22;;;;;;;6.83;5.20;;;;;;;4.73;70.35;96329.13;4931483;29;20430;-71
2023/10/17 07:02:04;;;;;;;9.47;6.90;;;;;;;4.72;70.57;96326.56;4921574;29;20482;-71
2023/10/17 07:04:29;;;;;;;7.43;6.10;;;;;;;4.90;69.94;96326.16;4917685;29;20484;-72
2023/10/17 07:06:55;;;;;;;12.03;5.93;;;;;;;4.99;70.39;96331.13;4936519;29;20466;-71
2023/10/17 07:09:24;;;;;;;13.43;6.53;;;;;;;4.91;70.50;96333.03;4933799;29;20269;-71
2023/10/17 07:11:52;;;;;;;7.87;5.70;;;;;;;4.60;71.47;96333.72;4931366;29;20183;-71
2023/10/17 07:14:24;;;;;;;10.87;6.13;;;;;;;5.04;79.60;96336.22;4929504;29;20506;-69
2023/10/17 07:16:57;;;;;;;13.63;6.73;;;;;;;7.01;73.43;96329.19;4930970;29;20418;-70
2023/10/17 07:24:35;;;;;;;10.07;7.60;;;;;;;5.25;68.85;96330.53;4933406;29;20186;-71
2023/10/17 07:27:11;;;;;;;16.13;10.20;;;;;;;5.58;70.37;96328.00;4918998;29;21073;-71
2023/10/17 07:29:37;;;;;;;14.50;10.10;;;;;;;5.19;69.33;96327.22;4930428;29;20892;-70
2023/10/17 07:32:09;;;;;;;14.70;10.23;;;;;;;4.38;71.77;96325.53;4930694;29;20423;-70
2023/10/17 07:34:36;;;;;;;16.53;10.30;;;;;;;4.52;72.24;96334.78;4931203;29;20449;-71
2023/10/17 07:37:14;;;;;;;12.80;10.43;;;;;;;4.32;73.31;96324.78;4931192;29;20617;-71
2023/10/17 07:39:40;;;;;;;15.17;10.40;;;;;;;4.21;73.36;96336.28;4929315;29;20443;-70
2023/10/17 07:42:14;;;;;;;16.03;11.70;;;;;;;4.41;73.71;96335.84;4929856;29;20466;-70
2023/10/17 07:44:41;;;;;;;21.37;12.10;;;;;;;4.78;73.22;96335.06;4930602;29;20629;-71
2023/10/17 07:47:09;;;;;;;13.43;11.73;;;;;;;4.78;71.38;96324.69;4927344;29;20544;-71
2023/10/17 07:49:35;;;;;;;14.70;9.63;;;;;;;5.34;70.91;96338.97;4930335;29;20833;-71
2023/10/17 07:52:10;;;;;;;18.73;12.13;;;;;;;4.62;71.92;96337.16;4930017;29;21183;-72
2023/10/17 07:54:45;;;;;;;16.30;11.83;;;;;;;4.46;72.99;96338.34;4931277;29;20509;-73
2023/10/17 07:57:17;;;;;;;18.10;11.83;;;;;;;4.30;73.93;96347.34;4931676;29;20445;-72
2023/10/17 07:59:50;;;;;;;19.33;11.70;;;;;;;4.52;73.19;96340.00;4914047;29;20977;-72
2023/10/17 08:02:20;;;;;;;16.50;11.60;;;;;;;4.55;73.15;96352.91;4931353;29;20506;-73
2023/10/17 08:04:50;;;;;;;19.70;11.37;;;;;;;4.82;72.34;96343.69;4935778;29;20434;-71
2023/10/17 08:07:16;;;;;;;18.60;12.80;;;;;;;4.75;71.96;96342.94;4938135;29;20426;-72
2023/10/17 08:09:51;;;;;;;20.73;14.60;;;;;;;4.11;74.17;96349.44;4935104;29;20418;-72
2023/10/17 08:12:22;;;;;;;21.47;13.47;;;;;;;4.85;75.77;96347.06;4931823;29;20512;-73
2023/10/17 08:14:57;;;;;;;21.87;12.83;;;;;;;4.51;73.50;96333.06;4930258;29;20443;-71
2023/10/17 08:17:23;;;;;;;21.73;14.13;;;;;;;4.76;72.06;96334.25;4930521;29;20430;-71
2023/10/17 08:20:08;;;;;;;18.00;12.63;;;;;;;5.04;71.53;96328.44;4930499;29;20434;-72
2023/10/17 08:22:58;;;;;;;16.60;12.60;;;;;;;5.11;71.09;96335.19;4931663;29;20469;-72
2023/10/17 08:25:30;;;;;;;19.03;14.27;;;;;;;4.95;71.59;96334.69;4931311;29;20442;-72
2023/10/17 08:27:56;;;;;;;20.17;14.07;;;;;;;5.05;71.63;96338.78;4934440;29;20415;-72
2023/10/17 08:30:26;;;;;;;22.10;12.97;;;;;;;4.75;72.39;96339.47;4930623;29;20449;-72
2023/10/17 08:35:51;;;;;;;21.57;12.60;;;;;;;4.91;72.14;96345.19;4932737;29;20461;-72
2023/10/17 08:38:17;;;;;;;16.00;12.27;;;;;;;4.64;73.00;96344.91;4930056;29;20425;-72
2023/10/17 08:40:43;;;;;;;18.10;13.77;;;;;;;4.63;73.91;96340.59;4918359;29;20467;-72
2023/10/17 08:43:13;;;;;;;22.10;14.20;;;;;;;4.94;72.03;96343.41;4922039;29;20415;-73
2023/10/17 08:45:39;;;;;;;16.53;12.87;;;;;;;5.82;74.03;96331.69;4930648;29;20426;-71
2023/10/17 08:48:11;;;;;;;17.70;13.00;;;;;;;5.35;70.53;96343.31;4929551;29;20427;-71
2023/10/17 08:50:38;;;;;;;18.77;13.90;;;;;;;4.95;71.88;96339.03;4938357;29;20457;-71
2023/10/17 08:53:07;;;;;;;16.50;12.60;;;;;;;4.83;73.40;96341.03;4931033;29;20418;-72
2023/10/17 08:55:32;;;;;;;16.77;11.20;;;;;;;4.94;72.23;96345.13;4929575;29;20430;-72
2023/10/17 08:57:59;;;;;;;18.90;14.43;;;;;;;4.89;72.67;96345.25;4936872;29;20442;-71
2023/10/17 09:03:10;;;;;;;13.47;11.63;;;;;;;5.40;71.30;96341.44;4932128;29;20992;-72
2023/10/17 09:06:07;;;;;;;19.33;14.73;;;;;;;4.85;73.23;96339.25;4932830;29;20411;-72
2023/10/17 09:11:30;;;;;;;12.57;9.43;;;;;;;7.86;84.36;96324.69;4929744;29;20509;-71
2023/10/17 09:16:42;;;;;;;14.33;12.53;;;;;;;5.79;69.47;96323.09;4929050;29;20437;-74
2023/10/17 09:19:10;;;;;;;17.17;13.93;;;;;;;5.17;72.45;96329.00;4911220;29;20558;-71
2023/10/17 09:21:43;;;;;;;17.40;13.40;;;;;;;4.47;74.91;96336.63;4928840;29;20541;-69
2023/10/17 09:24:40;;;;;;;16.47;13.00;;;;;;;4.78;74.00;96336.81;4928994;29;20403;-71
2023/10/17 09:27:10;;;;;;;20.20;14.60;;;;;;;5.08;73.12;96330.09;4916301;29;20443;-71
2023/10/17 09:29:45;;;;;;;22.67;14.10;;;;;;;4.91;73.31;96332.19;4910978;29;20530;-74
2023/10/17 09:32:10;;;;;;;16.97;12.80;;;;;;;4.94;73.57;96333.00;4929195;29;20415;-75
2023/10/17 09:34:38;;;;;;;19.87;13.63;;;;;;;4.93;73.59;96331.28;4929478;29;20777;-74
2023/10/17 09:37:05;;;;;;;18.60;13.37;;;;;;;4.87;73.98;96329.69;4928594;29;20224;-72
2023/10/17 09:39:39;;;;;;;15.57;12.73;;;;;;;5.03;72.99;96324.09;4928428;29;20415;-71
2023/10/17 09:42:05;;;;;;;16.10;14.23;;;;;;;4.64;74.22;96313.72;4928962;29;20478;-71
2023/10/17 09:44:32;;;;;;;19.40;14.70;;;;;;;4.79;74.17;96317.72;4929080;29;20446;-70
2023/10/17 09:47:06;;;;;;;18.03;13.60;;;;;;;4.95;73.56;96313.88;4929364;29;20433;-69
2023/10/17 09:49:37;;;;;;;16.63;13.30;;;;;;;5.29;72.66;96307.88;4926778;29;20543;-71
2023/10/17 09:52:09;;;;;;;17.70;14.33;;;;;;;5.09;72.63;96314.41;4929404;29;20868;-72
2023/10/17 09:54:40;;;;;;;20.63;13.10;;;;;;;5.06;73.06;96326.66;4927785;29;20828;-70
2023/10/17 09:57:12;;;;;;;17.10;12.80;;;;;;;5.00;73.35;96325.03;4941164;29;21125;-70
2023/10/17 09:59:42;;;;;;;20.30;13.77;;;;;;;5.35;71.94;96318.13;4928623;29;20449;-71
2023/10/17 10:02:09;;;;;;;16.70;13.20;;;;;;;5.20;72.77;96313.31;4929861;29;20792;-71
2023/10/17 10:04:35;;;;;;;19.20;13.07;;;;;;;5.08;72.95;96317.06;4933026;29;20435;-70
2023/10/17 10:07:19;;;;;;;19.23;13.77;;;;;;;4.46;75.01;96325.38;4928835;29;20441;-70
2023/10/17 10:09:44;;;;;;;34.10;14.43;;;;;;;5.00;73.30;96318.97;4927045;29;20647;-70
2023/10/17 10:12:10;;;;;;;16.50;12.30;;;;;;;4.94;73.93;96333.00;4927904;29;20450;-71
2023/10/17 10:14:40;;;;;;;17.20;13.13;;;;;;;5.38;72.72;96314.59;4928889;29;20229;-71
2023/10/17 10:17:06;;;;;;;15.87;12.33;;;;;;;5.35;72.08;96317.28;4927861;29;20182;-70
2023/10/17 10:19:40;;;;;;;16.60;13.20;;;;;;;5.50;71.93;96322.09;4926844;29;20418;-71
2023/10/17 10:22:07;;;;;;;16.70;13.60;;;;;;;5.53;71.65;96327.25;4928928;29;20194;-72
2023/10/17 10:24:36;;;;;;;21.63;14.60;;;;;;;5.72;70.47;96323.28;4928443;29;20415;-71
2023/10/17 10:27:14;;;;;;;17.10;12.90;;;;;;;5.64;71.15;96322.59;4927576;29;20446;-72
2023/10/17 10:29:43;;;;;;;18.50;13.80;;;;;;;5.07;73.36;96328.34;4927600;29;20426;-74
2023/10/17 10:32:33;;;;;;;17.67;13.43;;;;;;;5.29;73.20;96316.56;4928460;29;20415;-72
2023/10/17 10:34:58;;;;;;;17.70;15.27;;;;;;;5.11;73.90;96306.59;4909053;29;20513;-72
2023/10/17 10:37:24;;;;;;;20.97;14.37;;;;;;;5.44;73.19;96309.25;4929393;29;20515;-71
2023/10/17 10:40:11;;;;;;;22.17;14.73;;;;;;;5.72;72.06;96309.41;4911188;29;20203;-70
2023/10/17 10:42:50;;;;;;;16.17;13.00;;;;;;;5.80;71.30;96299.63;4923845;29;20211;-73
2023/10/17 10:45:52;;;;;;;19.13;14.20;;;;;;;5.65;72.09;96307.88;4926513;29;20505;-71
2023/10/17 10:48:17;;;;;;;18.93;14.93;;;;;;;5.58;72.93;96301.94;4925753;29;20423;-71
2023/10/17 10:50:45;;;;;;;19.90;14.57;;;;;;;5.84;71.66;96297.81;4926684;29;20608;-71
2023/10/17 10:53:31;;;;;;;20.07;14.80;;;;;;;6.07;70.53;96290.25;4927183;29;20529;-71
2023/10/17 10:56:02;;;;;;;22.73;16.70;;;;;;;5.64;72.33;96293.13;4927427;29;20423;-71
2023/10/17 10:58:51;;;;;;;19.80;15.40;;;;;;;5.98;70.95;96298.31;4927089;29;20427;-69
2023/10/17 11:01:18;;;;;;;29.60;19.80;;;;;;;5.91;71.74;96292.38;4927021;29;20505;-71
2023/10/17 11:03:48;;;;;;;23.30;17.10;;;;;;;5.66;72.40;96286.97;4927634;29;20422;-70
2023/10/17 11:06:15;;;;;;;24.23;14.90;;;;;;;5.82;72.49;96287.44;4928364;29;20461;-72
2023/10/17 11:08:43;;;;;;;17.00;14.63;;;;;;;6.06;71.91;96288.53;4927414;29;20415;-74
2023/10/17 11:11:13;;;;;;;18.63;15.17;;;;;;;5.79;72.80;96284.03;4927840;29;20430;-74
2023/10/17 11:13:44;;;;;;;22.57;17.83;;;;;;;6.18;71.12;96274.31;4921650;29;20418;-72
2023/10/17 11:16:10;;;;;;;19.73;14.93;;;;;;;6.13;71.75;96269.22;4928442;29;20427;-70
2023/10/17 11:18:38;;;;;;;18.13;15.13;;;;;;;5.86;72.50;96270.00;4934757;29;20489;-71
2023/10/17 11:21:05;;;;;;;21.67;15.80;;;;;;;5.64;73.32;96274.91;4930685;29;20207;-71
2023/10/17 11:23:35;;;;;;;22.40;16.30;;;;;;;5.47;74.18;96267.53;4931270;29;20925;-73
2023/10/17 11:26:12;;;;;;;19.63;14.70;;;;;;;5.37;75.43;96279.09;4937638;29;20410;-71
2023/10/17 11:28:46;;;;;;;21.80;16.03;;;;;;;6.01;73.09;96274.78;4940334;29;20474;-73
2023/10/17 11:31:21;;;;;;;20.63;15.00;;;;;;;6.42;71.17;96272.75;4924935;29;20468;-71
2023/10/17 11:33:55;;;;;;;19.63;15.33;;;;;;;6.62;70.80;96273.91;4930138;29;20481;-73
2023/10/17 11:36:22;;;;;;;18.83;14.83;;;;;;;6.60;70.99;96270.50;4931100;29;20920;-70
2023/10/17 11:38:56;;;;;;;19.03;15.20;;;;;;;6.33;71.99;96281.69;4928686;29;20419;-72
2023/10/17 11:41:28;;;;;;;19.57;16.27;;;;;;;6.41;71.90;96275.41;4930264;29;20485;-71
2023/10/17 11:43:54;;;;;;;19.70;15.70;;;;;;;6.75;70.47;96275.22;4930193;29;20415;-71
2023/10/17 11:46:29;;;;;;;21.30;16.17;;;;;;;6.52;71.36;96266.38;4929318;29;20434;-71
2023/10/17 11:49:32;;;;;;;21.03;16.20;;;;;;;6.67;70.98;96269.41;4932132;29;20178;-72
2023/10/17 11:52:15;;;;;;;21.30;16.30;;;;;;;6.92;69.90;96264.25;4930684;29;20502;-72
2023/10/17 11:54:53;;;;;;;17.50;14.50;;;;;;;6.96;70.03;96269.34;4930317;29;20407;-71
2023/10/17 11:57:22;;;;;;;21.10;16.10;;;;;;;6.82;70.27;96261.09;4932111;29;20464;-74
2023/10/17 11:59:55;;;;;;;19.90;15.20;;;;;;;6.65;70.65;96266.84;4928106;29;20501;-73
2023/10/17 12:02:21;;;;;;;19.97;15.53;;;;;;;6.91;70.37;96276.47;4928332;29;20462;-72
2023/10/17 12:04:46;;;;;;;19.10;13.70;;;;;;;6.72;70.97;96268.34;4934244;28;20470;-72
2023/10/17 12:07:11;;;;;;;25.63;16.03;;;;;;;6.84;70.40;96274.94;4933527;29;20546;-72
2023/10/17 12:09:37;;;;;;;17.47;14.80;;;;;;;7.06;69.80;96266.44;4922859;29;20242;-72
2023/10/17 12:12:02;;;;;;;18.80;15.13;;;;;;;6.97;70.04;96252.81;4922439;29;20676;-72
2023/10/17 12:14:28;;;;;;;19.50;15.53;;;;;;;7.11;69.83;96257.56;4925921;29;20176;-72
2023/10/17 12:16:54;;;;;;;22.27;16.83;;;;;;;6.73;71.06;96262.25;4925578;29;20581;-73
2023/10/17 12:19:22;;;;;;;21.40;15.83;;;;;;;6.52;72.33;96261.16;4925943;29;20650;-71
2023/10/17 12:21:50;;;;;;;20.60;15.63;;;;;;;6.75;71.35;96244.78;4924941;28;20311;-71
2023/10/17 12:24:19;;;;;;;20.13;15.37;;;;;;;6.98;70.49;96241.44;4929974;29;20422;-72
2023/10/17 12:26:46;;;;;;;20.50;15.10;;;;;;;7.11;70.18;96241.03;4941826;28;20509;-73
2023/10/17 12:29:12;;;;;;;19.07;15.80;;;;;;;7.15;69.65;96242.66;4948031;29;20406;-72
2023/10/17 12:31:41;;;;;;;18.10;15.60;;;;;;;6.96;70.80;96250.22;4937972;28;20458;-73
2023/10/17 12:34:07;;;;;;;25.20;18.10;;;;;;;6.92;70.70;96261.66;4929653;29;20426;-72
2023/10/17 12:36:36;;;;;;;25.87;18.23;;;;;;;7.16;70.31;96250.44;4929558;29;20419;-71
2023/10/17 12:39:03;;;;;;;18.90;15.50;;;;;;;7.14;70.58;96260.09;4928881;29;20411;-71
2023/10/17 12:41:33;;;;;;;21.77;16.30;;;;;;;7.47;69.18;96243.34;4912377;29;20498;-72
2023/10/17 12:43:59;;;;;;;25.60;18.63;;;;;;;7.67;68.99;96242.66;4928317;29;20469;-71
2023/10/17 12:46:25;;;;;;;21.93;16.80;;;;;;;7.52;69.23;96238.81;4932572;29;20442;-71
2023/10/17 12:48:50;;;;;;;17.70;14.43;;;;;;;7.52;68.92;96226.63;4910809;29;20183;-72
2023/10/17 12:51:16;;;;;;;19.60;15.43;;;;;;;7.40;69.05;96221.81;4914546;29;20714;-72
2023/10/17 12:53:41;;;;;;;22.63;17.00;;;;;;;7.63;68.76;96223.66;4928986;29;20322;-72
2023/10/17 12:56:10;;;;;;;22.60;15.17;;;;;;;7.88;67.87;96223.59;4920992;29;20206;-72
2023/10/17 12:58:36;;;;;;;22.97;17.23;;;;;;;7.89;67.80;96212.25;4928268;29;20171;-71
2023/10/17 13:01:04;;;;;;;23.93;16.63;;;;;;;7.68;68.79;96219.09;4928579;29;20557;-74
2023/10/17 13:03:33;;;;;;;20.00;15.70;;;;;;;7.74;68.35;96215.41;4925173;29;20581;-72
2023/10/17 13:05:58;;;;;;;17.80;14.97;;;;;;;7.85;68.62;96214.13;4924907;29;21662;-71
2023/10/17 13:08:24;;;;;;;20.83;16.20;;;;;;;7.66;69.51;96213.09;4920153;29;20502;-72
2023/10/17 13:10:50;;;;;;;19.27;15.50;;;;;;;7.32;70.09;96216.88;4921549;29;20281;-72
2023/10/17 13:13:15;;;;;;;20.30;16.10;;;;;;;7.26;70.82;96211.84;4928725;29;20191;-71
2023/10/17 13:15:43;;;;;;;22.37;17.10;;;;;;;7.38;70.43;96203.59;4918972;29;21253;-71
2023/10/17 13:18:10;;;;;;;24.40;17.93;;;;;;;7.77;69.24;96197.00;4937547;29;20260;-72
2023/10/17 13:20:36;;;;;;;21.70;16.03;;;;;;;8.04;68.61;96197.78;4928558;29;20474;-72
2023/10/17 13:23:05;;;;;;;24.63;17.50;;;;;;;8.15;67.75;96198.22;4935404;29;20945;-74
2023/10/17 13:25:35;;;;;;;19.60;16.10;;;;;;;8.26;67.63;96188.19;4931694;29;20174;-72
2023/10/17 13:28:01;;;;;;;26.03;17.23;;;;;;;8.41;66.76;96199.00;4924056;29;20423;-73
2023/10/17 13:30:26;;;;;;;17.70;14.80;;;;;;;8.17;68.17;96199.03;4929423;29;20435;-72
2023/10/17 13:32:52;;;;;;;19.93;17.30;;;;;;;8.12;68.42;96190.47;4929089;29;20415;-72
2023/10/17 13:35:20;;;;;;;26.10;16.67;;;;;;;8.24;67.99;96184.81;4929795;29;20178;-73
2023/10/17 13:37:51;;;;;;;30.00;17.30;;;;;;;8.48;67.85;96179.59;4928044;29;20258;-72
2023/10/17 13:40:21;;;;;;;15.20;10.40;;;;;;;10.24;78.37;96168.56;4927469;29;20462;-73
2023/10/17 13:42:50;;;;;;;20.97;14.00;;;;;;;11.41;63.86;96157.72;4910468;29;20545;-73
2023/10/17 13:45:15;;;;;;;18.87;14.97;;;;;;;9.82;62.71;96163.50;4928776;29;20466;-73